sensor_id;sensor_type;location;lat;lon;timestamp;P1;durP1;ratioP1;P2;durP2;ratioP2
23179;SDS011;11758;45.756;11.432;2022-10-16T00:01:48;102.38;;;48.70;;
23179;SDS011;11758;45.756;11.432;2022-10-16T00:04:14;99.13;;;50.03;;
23179;SDS011;11758;45.756;11.432;2022-10-16T00:06:41;93.72;;;49.08;;
23179;SDS011;11758;45.756;11.432;2022-10-16T00:09:07;100.75;;;49.00;;
23179;SDS011;11758;45.756;11.432;2022-10-16T00:11:34;100.95;;;50.33;;
23179;SDS011;11758;45.756;11.432;2022-10-16T00:14:03;105.18;;;51.55;;
23179;SDS011;11758;45.756;11.432;2022-10-16T00:16:29;106.22;;;50.05;;
23179;SDS011;11758;45.756;11.432;2022-10-16T00:18:56;101.13;;;50.58;;
23179;SDS011;11758;45.756;11.432;2022-10-16T00:21:25;102.63;;;49.95;;
23179;SDS011;11758;45.756;11.432;2022-10-16T00:24:02;104.90;;;49.78;;
23179;SDS011;11758;45.756;11.432;2022-10-16T00:26:32;102.57;;;50.88;;
23179;SDS011;11758;45.756;11.432;2022-10-16T00:29:16;112.63;;;50.53;;
23179;SDS011;11758;45.756;11.432;2022-10-16T00:31:42;100.55;;;49.08;;
23179;SDS011;11758;45.756;11.432;2022-10-16T00:34:08;101.30;;;49.17;;
23179;SDS011;11758;45.756;11.432;2022-10-16T00:36:35;106.40;;;50.80;;
23179;SDS011;11758;45.756;11.432;2022-10-16T00:39:01;101.38;;;49.55;;
23179;SDS011;11758;45.756;11.432;2022-10-16T00:41:27;105.50;;;51.80;;
23179;SDS011;11758;45.756;11.432;2022-10-16T00:43:58;103.78;;;50.63;;
23179;SDS011;11758;45.756;11.432;2022-10-16T00:46:29;102.10;;;49.72;;
23179;SDS011;11758;45.756;11.432;2022-10-16T00:51:23;112.22;;;52.03;;
23179;SDS011;11758;45.756;11.432;2022-10-16T00:53:51;109.15;;;51.17;;
23179;SDS011;11758;45.756;11.432;2022-10-16T00:56:17;102.90;;;51.40;;
23179;SDS011;11758;45.756;11.432;2022-10-16T00:58:44;108.20;;;50.95;;
23179;SDS011;11758;45.756;11.432;2022-10-16T01:01:10;111.75;;;51.83;;
23179;SDS011;11758;45.756;11.432;2022-10-16T01:03:36;108.88;;;52.25;;
23179;SDS011;11758;45.756;11.432;2022-10-16T01:06:22;111.60;;;51.55;;
23179;SDS011;11758;45.756;11.432;2022-10-16T01:08:55;99.78;;;50.22;;
23179;SDS011;11758;45.756;11.432;2022-10-16T01:13:54;104.72;;;50.63;;
23179;SDS011;11758;45.756;11.432;2022-10-16T01:19:09;108.45;;;50.70;;
23179;SDS011;11758;45.756;11.432;2022-10-16T01:21:39;108.00;;;50.85;;
23179;SDS011;11758;45.756;11.432;2022-10-16T01:24:12;107.80;;;52.17;;
23179;SDS011;11758;45.756;11.432;2022-10-16T01:26:46;109.10;;;50.75;;
23179;SDS011;11758;45.756;11.432;2022-10-16T01:31:44;106.15;;;51.70;;
23179;SDS011;11758;45.756;11.432;2022-10-16T01:34:15;103.78;;;50.95;;
23179;SDS011;11758;45.756;11.432;2022-10-16T01:36:45;109.15;;;51.42;;
23179;SDS011;11758;45.756;11.432;2022-10-16T01:39:12;110.13;;;51.65;;
23179;SDS011;11758;45.756;11.432;2022-10-16T01:41:41;108.25;;;52.63;;
23179;SDS011;11758;45.756;11.432;2022-10-16T01:44:22;111.88;;;53.55;;
23179;SDS011;11758;45.756;11.432;2022-10-16T01:46:51;112.35;;;54.55;;
23179;SDS011;11758;45.756;11.432;2022-10-16T01:49:18;110.53;;;51.95;;
23179;SDS011;11758;45.756;11.432;2022-10-16T01:51:47;115.10;;;52.38;;
23179;SDS011;11758;45.756;11.432;2022-10-16T01:54:17;107.35;;;51.47;;
23179;SDS011;11758;45.756;11.432;2022-10-16T01:56:46;111.68;;;50.78;;
23179;SDS011;11758;45.756;11.432;2022-10-16T01:59:15;110.40;;;51.50;;
23179;SDS011;11758;45.756;11.432;2022-10-16T02:01:43;106.72;;;50.75;;
23179;SDS011;11758;45.756;11.432;2022-10-16T02:04:16;111.43;;;51.85;;
23179;SDS011;11758;45.756;11.432;2022-10-16T02:06:43;118.47;;;53.28;;
23179;SDS011;11758;45.756;11.432;2022-10-16T02:09:10;113.60;;;53.22;;
23179;SDS011;11758;45.756;11.432;2022-10-16T02:11:36;109.00;;;52.33;;
23179;SDS011;11758;45.756;11.432;2022-10-16T02:14:03;111.70;;;53.47;;
23179;SDS011;11758;45.756;11.432;2022-10-16T02:16:34;120.65;;;53.70;;
23179;SDS011;11758;45.756;11.432;2022-10-16T02:19:01;113.10;;;52.42;;
23179;SDS011;11758;45.756;11.432;2022-10-16T02:26:52;112.35;;;51.65;;
23179;SDS011;11758;45.756;11.432;2022-10-16T02:29:20;119.03;;;53.45;;
23179;SDS011;11758;45.756;11.432;2022-10-16T02:31:48;110.10;;;52.10;;
23179;SDS011;11758;45.756;11.432;2022-10-16T02:34:16;116.38;;;53.17;;
23179;SDS011;11758;45.756;11.432;2022-10-16T02:36:44;120.60;;;53.90;;
23179;SDS011;11758;45.756;11.432;2022-10-16T02:39:10;128.27;;;53.03;;
23179;SDS011;11758;45.756;11.432;2022-10-16T02:41:37;119.38;;;54.65;;
23179;SDS011;11758;45.756;11.432;2022-10-16T02:44:03;113.38;;;52.83;;
23179;SDS011;11758;45.756;11.432;2022-10-16T02:46:29;121.85;;;53.38;;
23179;SDS011;11758;45.756;11.432;2022-10-16T02:48:55;111.80;;;52.97;;
23179;SDS011;11758;45.756;11.432;2022-10-16T02:51:21;108.88;;;52.22;;
23179;SDS011;11758;45.756;11.432;2022-10-16T02:53:48;117.03;;;54.10;;
23179;SDS011;11758;45.756;11.432;2022-10-16T02:56:14;107.25;;;51.00;;
23179;SDS011;11758;45.756;11.432;2022-10-16T02:58:40;113.22;;;51.63;;
23179;SDS011;11758;45.756;11.432;2022-10-16T03:01:06;116.53;;;52.03;;
23179;SDS011;11758;45.756;11.432;2022-10-16T03:03:32;120.45;;;52.13;;
23179;SDS011;11758;45.756;11.432;2022-10-16T03:06:02;116.22;;;52.55;;
23179;SDS011;11758;45.756;11.432;2022-10-16T03:08:28;116.57;;;51.08;;
23179;SDS011;11758;45.756;11.432;2022-10-16T03:10:54;117.55;;;52.90;;
23179;SDS011;11758;45.756;11.432;2022-10-16T03:13:21;123.57;;;55.30;;
23179;SDS011;11758;45.756;11.432;2022-10-16T03:15:47;119.88;;;55.20;;
23179;SDS011;11758;45.756;11.432;2022-10-16T03:18:13;122.05;;;53.38;;
23179;SDS011;11758;45.756;11.432;2022-10-16T03:20:39;116.97;;;54.15;;
23179;SDS011;11758;45.756;11.432;2022-10-16T03:23:06;122.10;;;54.42;;
23179;SDS011;11758;45.756;11.432;2022-10-16T03:25:33;113.28;;;53.30;;
23179;SDS011;11758;45.756;11.432;2022-10-16T03:27:59;112.53;;;51.80;;
23179;SDS011;11758;45.756;11.432;2022-10-16T03:30:25;119.72;;;52.90;;
23179;SDS011;11758;45.756;11.432;2022-10-16T03:32:51;122.63;;;54.88;;
23179;SDS011;11758;45.756;11.432;2022-10-16T03:35:21;126.88;;;56.47;;
23179;SDS011;11758;45.756;11.432;2022-10-16T03:37:48;126.72;;;57.00;;
23179;SDS011;11758;45.756;11.432;2022-10-16T03:40:14;137.00;;;59.35;;
23179;SDS011;11758;45.756;11.432;2022-10-16T03:42:41;131.25;;;56.50;;
23179;SDS011;11758;45.756;11.432;2022-10-16T03:45:08;129.73;;;58.22;;
23179;SDS011;11758;45.756;11.432;2022-10-16T03:47:34;124.78;;;55.80;;
23179;SDS011;11758;45.756;11.432;2022-10-16T03:50:00;127.60;;;56.00;;
23179;SDS011;11758;45.756;11.432;2022-10-16T03:52:26;114.55;;;53.83;;
23179;SDS011;11758;45.756;11.432;2022-10-16T03:54:52;128.65;;;54.85;;
23179;SDS011;11758;45.756;11.432;2022-10-16T03:57:19;121.88;;;55.28;;
23179;SDS011;11758;45.756;11.432;2022-10-16T03:59:45;122.45;;;55.22;;
23179;SDS011;11758;45.756;11.432;2022-10-16T04:02:12;124.43;;;55.38;;
23179;SDS011;11758;45.756;11.432;2022-10-16T04:04:38;114.82;;;53.38;;
23179;SDS011;11758;45.756;11.432;2022-10-16T04:07:04;118.75;;;54.08;;
23179;SDS011;11758;45.756;11.432;2022-10-16T04:09:30;121.18;;;55.13;;
23179;SDS011;11758;45.756;11.432;2022-10-16T04:11:56;121.53;;;55.03;;
23179;SDS011;11758;45.756;11.432;2022-10-16T04:14:22;129.80;;;57.55;;
23179;SDS011;11758;45.756;11.432;2022-10-16T04:16:48;118.18;;;56.13;;
23179;SDS011;11758;45.756;11.432;2022-10-16T04:19:15;126.88;;;56.28;;
23179;SDS011;11758;45.756;11.432;2022-10-16T04:21:41;127.82;;;55.22;;
23179;SDS011;11758;45.756;11.432;2022-10-16T04:24:07;121.80;;;55.67;;
23179;SDS011;11758;45.756;11.432;2022-10-16T04:26:33;119.15;;;55.58;;
23179;SDS011;11758;45.756;11.432;2022-10-16T04:28:59;123.78;;;55.08;;
23179;SDS011;11758;45.756;11.432;2022-10-16T04:31:25;121.53;;;54.70;;
23179;SDS011;11758;45.756;11.432;2022-10-16T04:33:51;124.90;;;54.42;;
23179;SDS011;11758;45.756;11.432;2022-10-16T04:36:20;127.63;;;54.00;;
23179;SDS011;11758;45.756;11.432;2022-10-16T04:38:46;132.98;;;56.65;;
23179;SDS011;11758;45.756;11.432;2022-10-16T04:41:12;127.88;;;56.05;;
23179;SDS011;11758;45.756;11.432;2022-10-16T04:43:38;120.07;;;53.92;;
23179;SDS011;11758;45.756;11.432;2022-10-16T04:46:05;121.57;;;54.03;;
23179;SDS011;11758;45.756;11.432;2022-10-16T04:48:34;131.32;;;54.20;;
23179;SDS011;11758;45.756;11.432;2022-10-16T04:51:00;130.77;;;56.45;;
23179;SDS011;11758;45.756;11.432;2022-10-16T04:53:26;129.32;;;57.45;;
23179;SDS011;11758;45.756;11.432;2022-10-16T04:55:52;128.50;;;55.75;;
23179;SDS011;11758;45.756;11.432;2022-10-16T04:58:18;121.20;;;54.20;;
23179;SDS011;11758;45.756;11.432;2022-10-16T05:00:44;120.57;;;55.78;;
23179;SDS011;11758;45.756;11.432;2022-10-16T05:03:12;138.40;;;58.30;;
23179;SDS011;11758;45.756;11.432;2022-10-16T05:05:42;131.60;;;59.85;;
23179;SDS011;11758;45.756;11.432;2022-10-16T05:08:09;132.05;;;58.42;;
23179;SDS011;11758;45.756;11.432;2022-10-16T05:10:35;132.43;;;58.28;;
23179;SDS011;11758;45.756;11.432;2022-10-16T05:13:01;135.48;;;58.00;;
23179;SDS011;11758;45.756;11.432;2022-10-16T05:15:30;132.10;;;55.80;;
23179;SDS011;11758;45.756;11.432;2022-10-16T05:17:57;119.57;;;55.15;;
23179;SDS011;11758;45.756;11.432;2022-10-16T05:20:23;134.35;;;57.22;;
23179;SDS011;11758;45.756;11.432;2022-10-16T05:22:49;124.43;;;56.97;;
23179;SDS011;11758;45.756;11.432;2022-10-16T05:25:15;121.35;;;56.33;;
23179;SDS011;11758;45.756;11.432;2022-10-16T05:27:41;136.82;;;56.47;;
23179;SDS011;11758;45.756;11.432;2022-10-16T05:30:08;129.15;;;57.85;;
23179;SDS011;11758;45.756;11.432;2022-10-16T05:32:34;135.77;;;56.00;;
23179;SDS011;11758;45.756;11.432;2022-10-16T05:35:03;133.48;;;56.28;;
23179;SDS011;11758;45.756;11.432;2022-10-16T05:37:29;126.90;;;56.22;;
23179;SDS011;11758;45.756;11.432;2022-10-16T05:39:56;123.68;;;56.75;;
23179;SDS011;11758;45.756;11.432;2022-10-16T05:42:25;130.38;;;56.85;;
23179;SDS011;11758;45.756;11.432;2022-10-16T05:44:51;130.68;;;58.35;;
23179;SDS011;11758;45.756;11.432;2022-10-16T05:47:17;126.95;;;54.90;;
23179;SDS011;11758;45.756;11.432;2022-10-16T05:49:45;128.25;;;55.45;;
23179;SDS011;11758;45.756;11.432;2022-10-16T05:52:12;129.18;;;56.95;;
23179;SDS011;11758;45.756;11.432;2022-10-16T05:54:38;133.85;;;56.90;;
23179;SDS011;11758;45.756;11.432;2022-10-16T05:57:04;133.98;;;56.92;;
23179;SDS011;11758;45.756;11.432;2022-10-16T05:59:31;128.68;;;57.05;;
23179;SDS011;11758;45.756;11.432;2022-10-16T06:01:57;136.88;;;58.03;;
23179;SDS011;11758;45.756;11.432;2022-10-16T06:04:23;119.90;;;55.50;;
23179;SDS011;11758;45.756;11.432;2022-10-16T06:06:50;128.40;;;56.45;;
23179;SDS011;11758;45.756;11.432;2022-10-16T06:09:19;117.50;;;53.63;;
23179;SDS011;11758;45.756;11.432;2022-10-16T06:11:51;131.10;;;57.20;;
23179;SDS011;11758;45.756;11.432;2022-10-16T06:14:23;129.60;;;55.20;;
23179;SDS011;11758;45.756;11.432;2022-10-16T06:16:50;125.57;;;55.38;;
23179;SDS011;11758;45.756;11.432;2022-10-16T06:19:16;129.75;;;55.47;;
23179;SDS011;11758;45.756;11.432;2022-10-16T06:21:43;110.75;;;50.30;;
23179;SDS011;11758;45.756;11.432;2022-10-16T06:24:10;111.78;;;50.53;;
23179;SDS011;11758;45.756;11.432;2022-10-16T06:26:39;98.30;;;46.03;;
23179;SDS011;11758;45.756;11.432;2022-10-16T06:29:05;101.28;;;47.67;;
23179;SDS011;11758;45.756;11.432;2022-10-16T06:31:32;123.03;;;54.38;;
23179;SDS011;11758;45.756;11.432;2022-10-16T06:33:58;102.63;;;44.70;;
23179;SDS011;11758;45.756;11.432;2022-10-16T06:36:25;74.85;;;38.28;;
23179;SDS011;11758;45.756;11.432;2022-10-16T06:38:52;75.00;;;38.67;;
23179;SDS011;11758;45.756;11.432;2022-10-16T06:41:19;88.95;;;42.13;;
23179;SDS011;11758;45.756;11.432;2022-10-16T06:43:46;82.82;;;42.03;;
23179;SDS011;11758;45.756;11.432;2022-10-16T06:46:13;76.40;;;38.28;;
23179;SDS011;11758;45.756;11.432;2022-10-16T06:48:40;72.80;;;37.47;;
23179;SDS011;11758;45.756;11.432;2022-10-16T06:51:10;67.60;;;36.60;;
23179;SDS011;11758;45.756;11.432;2022-10-16T06:53:37;65.25;;;32.85;;
23179;SDS011;11758;45.756;11.432;2022-10-16T06:56:17;58.55;;;32.15;;
23179;SDS011;11758;45.756;11.432;2022-10-16T06:58:50;65.00;;;32.55;;
23179;SDS011;11758;45.756;11.432;2022-10-16T07:01:16;64.65;;;32.58;;
23179;SDS011;11758;45.756;11.432;2022-10-16T07:03:43;62.13;;;32.45;;
23179;SDS011;11758;45.756;11.432;2022-10-16T07:06:10;57.35;;;30.48;;
23179;SDS011;11758;45.756;11.432;2022-10-16T07:08:38;57.72;;;31.67;;
23179;SDS011;11758;45.756;11.432;2022-10-16T07:11:09;59.78;;;31.10;;
23179;SDS011;11758;45.756;11.432;2022-10-16T07:13:35;60.58;;;29.88;;
23179;SDS011;11758;45.756;11.432;2022-10-16T07:16:07;56.72;;;29.92;;
23179;SDS011;11758;45.756;11.432;2022-10-16T07:18:34;62.08;;;32.80;;
23179;SDS011;11758;45.756;11.432;2022-10-16T07:21:08;62.55;;;33.55;;
23179;SDS011;11758;45.756;11.432;2022-10-16T07:23:34;65.93;;;34.35;;
23179;SDS011;11758;45.756;11.432;2022-10-16T07:26:00;56.75;;;30.70;;
23179;SDS011;11758;45.756;11.432;2022-10-16T07:28:26;52.92;;;28.83;;
23179;SDS011;11758;45.756;11.432;2022-10-16T07:30:53;57.10;;;29.50;;
23179;SDS011;11758;45.756;11.432;2022-10-16T07:33:19;55.70;;;30.73;;
23179;SDS011;11758;45.756;11.432;2022-10-16T07:35:52;50.97;;;28.73;;
23179;SDS011;11758;45.756;11.432;2022-10-16T07:38:18;51.17;;;29.77;;
23179;SDS011;11758;45.756;11.432;2022-10-16T07:40:44;59.53;;;31.52;;
23179;SDS011;11758;45.756;11.432;2022-10-16T07:43:11;60.30;;;33.28;;
23179;SDS011;11758;45.756;11.432;2022-10-16T07:45:37;74.45;;;37.83;;
23179;SDS011;11758;45.756;11.432;2022-10-16T07:48:11;78.03;;;38.88;;
23179;SDS011;11758;45.756;11.432;2022-10-16T07:50:37;72.00;;;34.92;;
23179;SDS011;11758;45.756;11.432;2022-10-16T07:53:03;64.60;;;30.48;;
23179;SDS011;11758;45.756;11.432;2022-10-16T07:55:30;55.42;;;28.70;;
23179;SDS011;11758;45.756;11.432;2022-10-16T07:57:56;63.92;;;30.83;;
23179;SDS011;11758;45.756;11.432;2022-10-16T08:00:22;51.20;;;28.10;;
23179;SDS011;11758;45.756;11.432;2022-10-16T08:02:48;45.80;;;26.42;;
23179;SDS011;11758;45.756;11.432;2022-10-16T08:05:14;56.47;;;29.25;;
23179;SDS011;11758;45.756;11.432;2022-10-16T08:07:40;72.68;;;37.40;;
23179;SDS011;11758;45.756;11.432;2022-10-16T08:10:06;80.78;;;40.28;;
23179;SDS011;11758;45.756;11.432;2022-10-16T08:12:32;77.47;;;40.33;;
23179;SDS011;11758;45.756;11.432;2022-10-16T08:14:58;73.75;;;39.42;;
23179;SDS011;11758;45.756;11.432;2022-10-16T08:17:24;71.60;;;37.03;;
23179;SDS011;11758;45.756;11.432;2022-10-16T08:19:50;78.63;;;40.03;;
23179;SDS011;11758;45.756;11.432;2022-10-16T08:22:17;87.10;;;43.65;;
23179;SDS011;11758;45.756;11.432;2022-10-16T08:24:43;87.68;;;45.05;;
23179;SDS011;11758;45.756;11.432;2022-10-16T08:27:09;94.57;;;45.08;;
23179;SDS011;11758;45.756;11.432;2022-10-16T08:29:35;100.07;;;49.13;;
23179;SDS011;11758;45.756;11.432;2022-10-16T08:32:03;101.90;;;50.35;;
23179;SDS011;11758;45.756;11.432;2022-10-16T08:34:29;103.25;;;49.38;;
23179;SDS011;11758;45.756;11.432;2022-10-16T08:36:55;99.07;;;48.47;;
23179;SDS011;11758;45.756;11.432;2022-10-16T08:39:22;96.78;;;48.78;;
23179;SDS011;11758;45.756;11.432;2022-10-16T08:49:25;98.43;;;50.25;;
23179;SDS011;11758;45.756;11.432;2022-10-16T08:51:52;93.97;;;48.00;;
23179;SDS011;11758;45.756;11.432;2022-10-16T08:54:40;100.78;;;49.45;;
23179;SDS011;11758;45.756;11.432;2022-10-16T08:59:35;95.82;;;48.22;;
23179;SDS011;11758;45.756;11.432;2022-10-16T09:02:02;102.20;;;49.92;;
23179;SDS011;11758;45.756;11.432;2022-10-16T09:06:55;95.45;;;48.50;;
23179;SDS011;11758;45.756;11.432;2022-10-16T09:09:40;98.60;;;49.47;;
23179;SDS011;11758;45.756;11.432;2022-10-16T09:14:42;106.57;;;51.38;;
23179;SDS011;11758;45.756;11.432;2022-10-16T09:20:09;117.68;;;53.50;;
23179;SDS011;11758;45.756;11.432;2022-10-16T09:22:38;108.32;;;52.90;;
23179;SDS011;11758;45.756;11.432;2022-10-16T09:25:15;106.93;;;53.25;;
23179;SDS011;11758;45.756;11.432;2022-10-16T09:27:42;103.03;;;52.03;;
23179;SDS011;11758;45.756;11.432;2022-10-16T09:30:11;105.60;;;52.17;;
23179;SDS011;11758;45.756;11.432;2022-10-16T09:32:37;104.55;;;50.45;;
23179;SDS011;11758;45.756;11.432;2022-10-16T09:35:09;109.50;;;54.72;;
23179;SDS011;11758;45.756;11.432;2022-10-16T09:37:37;108.15;;;54.80;;
23179;SDS011;11758;45.756;11.432;2022-10-16T09:40:03;111.07;;;53.60;;
23179;SDS011;11758;45.756;11.432;2022-10-16T09:42:33;111.55;;;53.17;;
23179;SDS011;11758;45.756;11.432;2022-10-16T09:45:00;107.32;;;53.17;;
23179;SDS011;11758;45.756;11.432;2022-10-16T09:47:27;118.05;;;56.70;;
23179;SDS011;11758;45.756;11.432;2022-10-16T09:49:57;111.75;;;53.00;;
23179;SDS011;11758;45.756;11.432;2022-10-16T09:52:27;112.18;;;52.92;;
23179;SDS011;11758;45.756;11.432;2022-10-16T09:57:20;105.43;;;50.63;;
23179;SDS011;11758;45.756;11.432;2022-10-16T09:59:51;102.47;;;53.80;;
23179;SDS011;11758;45.756;11.432;2022-10-16T10:02:18;104.82;;;53.65;;
23179;SDS011;11758;45.756;11.432;2022-10-16T10:04:49;106.28;;;51.88;;
23179;SDS011;11758;45.756;11.432;2022-10-16T10:10:27;94.03;;;47.38;;
23179;SDS011;11758;45.756;11.432;2022-10-16T10:12:54;96.53;;;50.42;;
23179;SDS011;11758;45.756;11.432;2022-10-16T10:15:21;98.53;;;47.00;;
23179;SDS011;11758;45.756;11.432;2022-10-16T10:17:50;140.77;;;70.88;;
23179;SDS011;11758;45.756;11.432;2022-10-16T10:26:06;87.05;;;44.97;;
23179;SDS011;11758;45.756;11.432;2022-10-16T10:31:09;85.50;;;43.67;;
23179;SDS011;11758;45.756;11.432;2022-10-16T10:36:12;80.95;;;44.50;;
23179;SDS011;11758;45.756;11.432;2022-10-16T10:38:47;78.40;;;43.70;;
23179;SDS011;11758;45.756;11.432;2022-10-16T10:46:34;71.13;;;40.97;;
23179;SDS011;11758;45.756;11.432;2022-10-16T10:56:57;84.40;;;42.92;;
23179;SDS011;11758;45.756;11.432;2022-10-16T10:59:37;81.70;;;43.65;;
23179;SDS011;11758;45.756;11.432;2022-10-16T11:07:28;54.10;;;31.63;;
23179;SDS011;11758;45.756;11.432;2022-10-16T11:10:05;80.30;;;43.97;;
23179;SDS011;11758;45.756;11.432;2022-10-16T11:12:47;84.82;;;44.60;;
23179;SDS011;11758;45.756;11.432;2022-10-16T11:15:15;81.32;;;42.00;;
23179;SDS011;11758;45.756;11.432;2022-10-16T11:17:45;78.38;;;41.92;;
23179;SDS011;11758;45.756;11.432;2022-10-16T11:20:20;77.25;;;40.53;;
23179;SDS011;11758;45.756;11.432;2022-10-16T11:22:50;75.93;;;42.55;;
23179;SDS011;11758;45.756;11.432;2022-10-16T11:25:28;79.68;;;44.72;;
23179;SDS011;11758;45.756;11.432;2022-10-16T11:27:57;80.10;;;43.13;;
23179;SDS011;11758;45.756;11.432;2022-10-16T11:30:25;81.57;;;44.53;;
23179;SDS011;11758;45.756;11.432;2022-10-16T11:35:19;82.68;;;46.30;;
23179;SDS011;11758;45.756;11.432;2022-10-16T11:37:48;79.38;;;43.08;;
23179;SDS011;11758;45.756;11.432;2022-10-16T11:43:10;84.90;;;43.83;;
23179;SDS011;11758;45.756;11.432;2022-10-16T11:45:40;78.65;;;43.13;;
23179;SDS011;11758;45.756;11.432;2022-10-16T11:53:18;84.60;;;44.08;;
23179;SDS011;11758;45.756;11.432;2022-10-16T11:55:47;80.75;;;43.42;;
23179;SDS011;11758;45.756;11.432;2022-10-16T12:01:28;69.68;;;40.53;;
23179;SDS011;11758;45.756;11.432;2022-10-16T12:08:37;83.07;;;42.63;;
23179;SDS011;11758;45.756;11.432;2022-10-16T12:11:08;75.10;;;42.10;;
23179;SDS011;11758;45.756;11.432;2022-10-16T12:13:35;77.63;;;42.35;;
23179;SDS011;11758;45.756;11.432;2022-10-16T12:18:34;80.25;;;43.55;;
23179;SDS011;11758;45.756;11.432;2022-10-16T12:21:00;75.70;;;44.28;;
23179;SDS011;11758;45.756;11.432;2022-10-16T12:23:31;87.00;;;46.08;;
23179;SDS011;11758;45.756;11.432;2022-10-16T12:25:58;70.20;;;41.53;;
23179;SDS011;11758;45.756;11.432;2022-10-16T12:28:28;85.05;;;44.65;;
23179;SDS011;11758;45.756;11.432;2022-10-16T12:33:26;87.93;;;43.75;;
23179;SDS011;11758;45.756;11.432;2022-10-16T12:35:52;80.68;;;45.63;;
23179;SDS011;11758;45.756;11.432;2022-10-16T12:39:05;77.22;;;43.28;;
23179;SDS011;11758;45.756;11.432;2022-10-16T12:41:08;76.95;;;44.40;;
23179;SDS011;11758;45.756;11.432;2022-10-16T12:46:20;70.93;;;43.38;;
23179;SDS011;11758;45.756;11.432;2022-10-16T12:48:46;83.03;;;44.22;;
23179;SDS011;11758;45.756;11.432;2022-10-16T12:51:33;81.57;;;44.67;;
23179;SDS011;11758;45.756;11.432;2022-10-16T13:09:43;84.05;;;45.15;;
23179;SDS011;11758;45.756;11.432;2022-10-16T13:17:27;79.05;;;44.83;;
23179;SDS011;11758;45.756;11.432;2022-10-16T13:20:00;79.63;;;45.28;;
23179;SDS011;11758;45.756;11.432;2022-10-16T13:22:43;78.22;;;44.40;;
23179;SDS011;11758;45.756;11.432;2022-10-16T13:25:22;78.10;;;44.28;;
23179;SDS011;11758;45.756;11.432;2022-10-16T13:30:25;78.40;;;44.25;;
23179;SDS011;11758;45.756;11.432;2022-10-16T13:32:59;80.70;;;45.50;;
23179;SDS011;11758;45.756;11.432;2022-10-16T13:35:35;89.90;;;44.67;;
23179;SDS011;11758;45.756;11.432;2022-10-16T13:38:12;88.03;;;46.63;;
23179;SDS011;11758;45.756;11.432;2022-10-16T13:43:19;87.97;;;46.47;;
23179;SDS011;11758;45.756;11.432;2022-10-16T13:45:54;80.72;;;45.97;;
23179;SDS011;11758;45.756;11.432;2022-10-16T13:48:21;96.00;;;48.38;;
23179;SDS011;11758;45.756;11.432;2022-10-16T13:50:57;86.55;;;45.60;;
23179;SDS011;11758;45.756;11.432;2022-10-16T13:53:23;84.60;;;46.10;;
23179;SDS011;11758;45.756;11.432;2022-10-16T13:55:50;82.18;;;45.63;;
23179;SDS011;11758;45.756;11.432;2022-10-16T13:58:16;85.05;;;46.80;;
23179;SDS011;11758;45.756;11.432;2022-10-16T14:03:20;89.57;;;48.30;;
23179;SDS011;11758;45.756;11.432;2022-10-16T14:05:47;85.32;;;47.40;;
23179;SDS011;11758;45.756;11.432;2022-10-16T14:08:14;94.30;;;48.45;;
23179;SDS011;11758;45.756;11.432;2022-10-16T14:10:41;90.72;;;47.90;;
23179;SDS011;11758;45.756;11.432;2022-10-16T14:13:07;94.78;;;47.63;;
23179;SDS011;11758;45.756;11.432;2022-10-16T14:15:34;94.47;;;49.40;;
23179;SDS011;11758;45.756;11.432;2022-10-16T14:18:01;87.40;;;47.05;;
23179;SDS011;11758;45.756;11.432;2022-10-16T14:20:28;85.65;;;47.42;;
23179;SDS011;11758;45.756;11.432;2022-10-16T14:23:02;85.28;;;47.08;;
23179;SDS011;11758;45.756;11.432;2022-10-16T14:25:30;90.13;;;48.47;;
23179;SDS011;11758;45.756;11.432;2022-10-16T14:27:57;88.80;;;46.10;;
23179;SDS011;11758;45.756;11.432;2022-10-16T14:30:25;92.35;;;49.10;;
23179;SDS011;11758;45.756;11.432;2022-10-16T14:32:58;87.20;;;46.00;;
23179;SDS011;11758;45.756;11.432;2022-10-16T14:35:29;86.03;;;49.05;;
23179;SDS011;11758;45.756;11.432;2022-10-16T14:37:56;90.72;;;48.95;;
23179;SDS011;11758;45.756;11.432;2022-10-16T14:40:23;93.45;;;48.35;;
23179;SDS011;11758;45.756;11.432;2022-10-16T14:42:50;93.63;;;47.70;;
23179;SDS011;11758;45.756;11.432;2022-10-16T14:45:20;90.43;;;49.30;;
23179;SDS011;11758;45.756;11.432;2022-10-16T14:47:50;87.80;;;49.72;;
23179;SDS011;11758;45.756;11.432;2022-10-16T14:50:18;93.78;;;48.00;;
23179;SDS011;11758;45.756;11.432;2022-10-16T14:52:44;91.85;;;48.63;;
23179;SDS011;11758;45.756;11.432;2022-10-16T14:55:10;95.70;;;49.42;;
23179;SDS011;11758;45.756;11.432;2022-10-16T14:57:37;98.32;;;49.42;;
23179;SDS011;11758;45.756;11.432;2022-10-16T15:00:09;90.35;;;49.40;;
23179;SDS011;11758;45.756;11.432;2022-10-16T15:02:36;85.82;;;49.47;;
23179;SDS011;11758;45.756;11.432;2022-10-16T15:05:12;92.95;;;50.95;;
23179;SDS011;11758;45.756;11.432;2022-10-16T15:07:39;85.13;;;48.13;;
23179;SDS011;11758;45.756;11.432;2022-10-16T15:10:05;84.82;;;46.72;;
23179;SDS011;11758;45.756;11.432;2022-10-16T15:12:31;80.03;;;45.75;;
23179;SDS011;11758;45.756;11.432;2022-10-16T15:14:58;80.63;;;45.85;;
23179;SDS011;11758;45.756;11.432;2022-10-16T15:17:24;89.75;;;46.03;;
23179;SDS011;11758;45.756;11.432;2022-10-16T15:19:50;82.53;;;43.50;;
23179;SDS011;11758;45.756;11.432;2022-10-16T15:22:16;85.20;;;43.35;;
23179;SDS011;11758;45.756;11.432;2022-10-16T15:24:42;81.22;;;45.90;;
23179;SDS011;11758;45.756;11.432;2022-10-16T15:27:08;80.60;;;46.15;;
23179;SDS011;11758;45.756;11.432;2022-10-16T15:29:35;81.60;;;45.63;;
23179;SDS011;11758;45.756;11.432;2022-10-16T15:32:01;79.65;;;45.15;;
23179;SDS011;11758;45.756;11.432;2022-10-16T15:34:27;91.13;;;47.42;;
23179;SDS011;11758;45.756;11.432;2022-10-16T15:36:54;84.70;;;46.55;;
23179;SDS011;11758;45.756;11.432;2022-10-16T15:39:22;88.35;;;47.80;;
23179;SDS011;11758;45.756;11.432;2022-10-16T15:41:48;88.35;;;47.25;;
23179;SDS011;11758;45.756;11.432;2022-10-16T15:44:18;88.43;;;47.40;;
23179;SDS011;11758;45.756;11.432;2022-10-16T15:46:45;87.65;;;47.88;;
23179;SDS011;11758;45.756;11.432;2022-10-16T15:49:11;96.55;;;49.13;;
23179;SDS011;11758;45.756;11.432;2022-10-16T15:51:38;93.13;;;46.88;;
23179;SDS011;11758;45.756;11.432;2022-10-16T15:54:05;113.43;;;60.65;;
23179;SDS011;11758;45.756;11.432;2022-10-16T15:56:32;132.93;;;71.07;;
23179;SDS011;11758;45.756;11.432;2022-10-16T15:58:59;93.28;;;50.60;;
23179;SDS011;11758;45.756;11.432;2022-10-16T16:01:33;100.03;;;47.80;;
23179;SDS011;11758;45.756;11.432;2022-10-16T16:03:59;86.88;;;47.75;;
23179;SDS011;11758;45.756;11.432;2022-10-16T16:06:26;90.20;;;47.92;;
23179;SDS011;11758;45.756;11.432;2022-10-16T16:08:52;88.43;;;48.35;;
23179;SDS011;11758;45.756;11.432;2022-10-16T16:11:19;105.28;;;54.67;;
23179;SDS011;11758;45.756;11.432;2022-10-16T16:13:45;104.68;;;55.50;;